sensor_id;sensor_type;location;lat;lon;timestamp;temperature;humidity
14741;DHT22;7462;53.530;9.414;2023-05-27T00:02:18;9.90;99.90
14741;DHT22;7462;53.530;9.414;2023-05-27T00:04:46;9.80;99.90
14741;DHT22;7462;53.530;9.414;2023-05-27T00:07:14;9.80;99.90
14741;DHT22;7462;53.530;9.414;2023-05-27T00:09:42;9.80;99.90
14741;DHT22;7462;53.530;9.414;2023-05-27T00:12:10;9.80;99.90
14741;DHT22;7462;53.530;9.414;2023-05-27T00:14:39;9.70;99.90
14741;DHT22;7462;53.530;9.414;2023-05-27T00:17:08;9.70;99.90
14741;DHT22;7462;53.530;9.414;2023-05-27T00:19:40;9.70;99.90
14741;DHT22;7462;53.530;9.414;2023-05-27T00:22:08;9.70;99.90
14741;DHT22;7462;53.530;9.414;2023-05-27T00:24:37;9.60;99.90
14741;DHT22;7462;53.530;9.414;2023-05-27T00:27:06;9.60;99.90
14741;DHT22;7462;53.530;9.414;2023-05-27T00:29:34;9.60;99.90
14741;DHT22;7462;53.530;9.414;2023-05-27T00:32:04;9.60;99.90
14741;DHT22;7462;53.530;9.414;2023-05-27T00:34:33;9.50;99.90
14741;DHT22;7462;53.530;9.414;2023-05-27T00:37:01;9.50;99.90
14741;DHT22;7462;53.530;9.414;2023-05-27T00:39:29;9.50;99.90
14741;DHT22;7462;53.530;9.414;2023-05-27T00:41:58;9.50;99.90
14741;DHT22;7462;53.530;9.414;2023-05-27T00:44:26;9.40;99.90
14741;DHT22;7462;53.530;9.414;2023-05-27T00:46:54;9.40;99.90
14741;DHT22;7462;53.530;9.414;2023-05-27T00:49:23;9.40;99.90
14741;DHT22;7462;53.530;9.414;2023-05-27T00:51:53;9.40;99.90
14741;DHT22;7462;53.530;9.414;2023-05-27T00:54:21;9.30;99.90
14741;DHT22;7462;53.530;9.414;2023-05-27T00:56:50;9.30;99.90
14741;DHT22;7462;53.530;9.414;2023-05-27T00:59:18;9.30;99.90
14741;DHT22;7462;53.530;9.414;2023-05-27T01:01:46;9.30;99.90
14741;DHT22;7462;53.530;9.414;2023-05-27T01:04:17;9.30;99.90
14741;DHT22;7462;53.530;9.414;2023-05-27T01:06:55;9.20;99.90
14741;DHT22;7462;53.530;9.414;2023-05-27T01:09:30;9.20;99.90
14741;DHT22;7462;53.530;9.414;2023-05-27T01:12:06;9.20;99.90
14741;DHT22;7462;53.530;9.414;2023-05-27T01:14:37;9.20;99.90
14741;DHT22;7462;53.530;9.414;2023-05-27T01:17:06;9.20;99.90
14741;DHT22;7462;53.530;9.414;2023-05-27T01:19:39;9.10;99.90
14741;DHT22;7462;53.530;9.414;2023-05-27T01:22:12;9.10;99.90
14741;DHT22;7462;53.530;9.414;2023-05-27T01:24:41;9.10;99.90
14741;DHT22;7462;53.530;9.414;2023-05-27T01:27:10;9.10;99.90
14741;DHT22;7462;53.530;9.414;2023-05-27T01:29:40;9.10;99.90
14741;DHT22;7462;53.530;9.414;2023-05-27T01:32:14;9.00;99.90
14741;DHT22;7462;53.530;9.414;2023-05-27T01:34:50;9.00;99.90
14741;DHT22;7462;53.530;9.414;2023-05-27T01:37:19;9.00;99.90
14741;DHT22;7462;53.530;9.414;2023-05-27T01:39:51;8.90;99.90
14741;DHT22;7462;53.530;9.414;2023-05-27T01:42:20;8.90;99.90
14741;DHT22;7462;53.530;9.414;2023-05-27T01:44:50;8.90;99.90
14741;DHT22;7462;53.530;9.414;2023-05-27T01:47:19;8.80;99.90
14741;DHT22;7462;53.530;9.414;2023-05-27T01:49:48;8.80;99.90
14741;DHT22;7462;53.530;9.414;2023-05-27T01:52:16;8.80;99.90
14741;DHT22;7462;53.530;9.414;2023-05-27T01:54:44;8.80;99.90
14741;DHT22;7462;53.530;9.414;2023-05-27T01:57:14;8.80;99.90
14741;DHT22;7462;53.530;9.414;2023-05-27T01:59:42;8.80;99.90
14741;DHT22;7462;53.530;9.414;2023-05-27T02:02:10;8.80;99.90
14741;DHT22;7462;53.530;9.414;2023-05-27T02:04:38;8.70;99.90
14741;DHT22;7462;53.530;9.414;2023-05-27T02:07:06;8.70;99.90
14741;DHT22;7462;53.530;9.414;2023-05-27T02:09:35;8.70;99.90
14741;DHT22;7462;53.530;9.414;2023-05-27T02:12:04;8.70;99.90
14741;DHT22;7462;53.530;9.414;2023-05-27T02:14:33;8.60;99.90
14741;DHT22;7462;53.530;9.414;2023-05-27T02:17:05;8.70;99.90
14741;DHT22;7462;53.530;9.414;2023-05-27T02:19:34;8.60;99.90
14741;DHT22;7462;53.530;9.414;2023-05-27T02:22:07;8.60;99.90
14741;DHT22;7462;53.530;9.414;2023-05-27T02:24:35;8.60;99.90
14741;DHT22;7462;53.530;9.414;2023-05-27T02:27:03;8.60;99.90
14741;DHT22;7462;53.530;9.414;2023-05-27T02:29:33;8.50;99.90
14741;DHT22;7462;53.530;9.414;2023-05-27T02:32:03;8.50;99.90
14741;DHT22;7462;53.530;9.414;2023-05-27T02:34:31;8.50;99.90
14741;DHT22;7462;53.530;9.414;2023-05-27T02:37:05;8.50;99.90
14741;DHT22;7462;53.530;9.414;2023-05-27T02:39:33;8.50;99.90
14741;DHT22;7462;53.530;9.414;2023-05-27T02:42:01;8.50;99.90
14741;DHT22;7462;53.530;9.414;2023-05-27T02:44:29;8.40;99.90
14741;DHT22;7462;53.530;9.414;2023-05-27T02:46:58;8.50;99.90
14741;DHT22;7462;53.530;9.414;2023-05-27T02:49:27;8.50;99.90
14741;DHT22;7462;53.530;9.414;2023-05-27T02:51:55;8.40;99.90
14741;DHT22;7462;53.530;9.414;2023-05-27T02:54:23;8.40;99.90
14741;DHT22;7462;53.530;9.414;2023-05-27T02:56:51;8.40;99.90
14741;DHT22;7462;53.530;9.414;2023-05-27T02:59:19;8.30;99.90
14741;DHT22;7462;53.530;9.414;2023-05-27T03:01:47;8.30;99.90
14741;DHT22;7462;53.530;9.414;2023-05-27T03:04:17;8.30;99.90
14741;DHT22;7462;53.530;9.414;2023-05-27T03:06:45;8.30;99.90
14741;DHT22;7462;53.530;9.414;2023-05-27T03:09:14;8.20;99.90
14741;DHT22;7462;53.530;9.414;2023-05-27T03:11:42;8.20;99.90
14741;DHT22;7462;53.530;9.414;2023-05-27T03:14:10;8.20;99.90
14741;DHT22;7462;53.530;9.414;2023-05-27T03:16:38;8.20;99.90
14741;DHT22;7462;53.530;9.414;2023-05-27T03:19:07;8.20;99.90
14741;DHT22;7462;53.530;9.414;2023-05-27T03:21:37;8.20;99.90
14741;DHT22;7462;53.530;9.414;2023-05-27T03:24:05;8.30;99.90
14741;DHT22;7462;53.530;9.414;2023-05-27T03:26:34;8.30;99.90
14741;DHT22;7462;53.530;9.414;2023-05-27T03:29:04;8.30;99.90
14741;DHT22;7462;53.530;9.414;2023-05-27T03:31:33;8.20;99.90
14741;DHT22;7462;53.530;9.414;2023-05-27T03:34:06;8.30;99.90
14741;DHT22;7462;53.530;9.414;2023-05-27T03:36:34;8.20;99.90
14741;DHT22;7462;53.530;9.414;2023-05-27T03:39:05;8.20;99.90
14741;DHT22;7462;53.530;9.414;2023-05-27T03:41:35;8.30;99.90
14741;DHT22;7462;53.530;9.414;2023-05-27T03:44:03;8.30;99.90
14741;DHT22;7462;53.530;9.414;2023-05-27T03:46:33;8.30;99.90
14741;DHT22;7462;53.530;9.414;2023-05-27T03:49:01;8.30;99.90
14741;DHT22;7462;53.530;9.414;2023-05-27T03:51:29;8.30;99.90
14741;DHT22;7462;53.530;9.414;2023-05-27T03:53:58;8.40;99.90
14741;DHT22;7462;53.530;9.414;2023-05-27T03:56:27;8.40;99.90
14741;DHT22;7462;53.530;9.414;2023-05-27T03:58:55;8.40;99.90
14741;DHT22;7462;53.530;9.414;2023-05-27T04:01:23;8.50;99.90
14741;DHT22;7462;53.530;9.414;2023-05-27T04:03:54;8.50;99.90
14741;DHT22;7462;53.530;9.414;2023-05-27T04:06:22;8.60;99.90
14741;DHT22;7462;53.530;9.414;2023-05-27T04:08:51;8.60;99.90
14741;DHT22;7462;53.530;9.414;2023-05-27T04:11:19;8.60;99.90
14741;DHT22;7462;53.530;9.414;2023-05-27T04:13:49;8.70;99.90
14741;DHT22;7462;53.530;9.414;2023-05-27T04:16:17;8.80;99.90
14741;DHT22;7462;53.530;9.414;2023-05-27T04:18:45;8.80;99.90
14741;DHT22;7462;53.530;9.414;2023-05-27T04:21:15;8.90;99.90
14741;DHT22;7462;53.530;9.414;2023-05-27T04:23:44;9.00;99.90
14741;DHT22;7462;53.530;9.414;2023-05-27T04:26:12;9.10;99.90
14741;DHT22;7462;53.530;9.414;2023-05-27T04:28:48;9.20;99.90
14741;DHT22;7462;53.530;9.414;2023-05-27T04:31:17;9.20;99.90
14741;DHT22;7462;53.530;9.414;2023-05-27T04:33:50;9.20;99.90
14741;DHT22;7462;53.530;9.414;2023-05-27T04:36:20;9.30;99.90
14741;DHT22;7462;53.530;9.414;2023-05-27T04:39:03;9.40;99.90
14741;DHT22;7462;53.530;9.414;2023-05-27T04:41:33;9.50;99.90
14741;DHT22;7462;53.530;9.414;2023-05-27T04:44:02;9.50;99.90
14741;DHT22;7462;53.530;9.414;2023-05-27T04:46:36;9.60;99.90
14741;DHT22;7462;53.530;9.414;2023-05-27T04:49:06;9.70;99.90
14741;DHT22;7462;53.530;9.414;2023-05-27T04:51:34;9.80;99.90
14741;DHT22;7462;53.530;9.414;2023-05-27T04:54:04;9.90;99.90
14741;DHT22;7462;53.530;9.414;2023-05-27T04:56:33;10.00;99.90
14741;DHT22;7462;53.530;9.414;2023-05-27T04:59:04;10.10;99.90
14741;DHT22;7462;53.530;9.414;2023-05-27T05:01:33;10.20;99.90
14741;DHT22;7462;53.530;9.414;2023-05-27T05:04:23;10.30;99.90
14741;DHT22;7462;53.530;9.414;2023-05-27T05:06:55;10.40;99.90
14741;DHT22;7462;53.530;9.414;2023-05-27T05:09:24;10.50;99.90
14741;DHT22;7462;53.530;9.414;2023-05-27T05:11:52;10.60;99.90
14741;DHT22;7462;53.530;9.414;2023-05-27T05:14:22;10.70;99.90
14741;DHT22;7462;53.530;9.414;2023-05-27T05:16:50;10.80;99.90
14741;DHT22;7462;53.530;9.414;2023-05-27T05:19:18;10.90;99.90
14741;DHT22;7462;53.530;9.414;2023-05-27T05:21:47;11.00;99.90
14741;DHT22;7462;53.530;9.414;2023-05-27T05:24:15;11.20;99.90
14741;DHT22;7462;53.530;9.414;2023-05-27T05:26:44;11.30;99.90
14741;DHT22;7462;53.530;9.414;2023-05-27T05:29:13;11.50;99.90
14741;DHT22;7462;53.530;9.414;2023-05-27T05:31:42;11.60;99.90
14741;DHT22;7462;53.530;9.414;2023-05-27T05:34:12;11.80;99.90
14741;DHT22;7462;53.530;9.414;2023-05-27T05:36:41;11.90;99.90
14741;DHT22;7462;53.530;9.414;2023-05-27T05:39:09;12.00;99.90
14741;DHT22;7462;53.530;9.414;2023-05-27T05:41:42;12.00;99.90
14741;DHT22;7462;53.530;9.414;2023-05-27T05:44:12;12.10;99.90
14741;DHT22;7462;53.530;9.414;2023-05-27T05:46:42;12.20;99.90
14741;DHT22;7462;53.530;9.414;2023-05-27T05:49:10;12.50;99.90
14741;DHT22;7462;53.530;9.414;2023-05-27T05:51:42;12.60;99.90
14741;DHT22;7462;53.530;9.414;2023-05-27T05:54:11;12.60;99.90
14741;DHT22;7462;53.530;9.414;2023-05-27T05:56:43;12.80;99.90
14741;DHT22;7462;53.530;9.414;2023-05-27T05:59:11;12.90;99.90
14741;DHT22;7462;53.530;9.414;2023-05-27T06:01:41;13.10;99.90
14741;DHT22;7462;53.530;9.414;2023-05-27T06:04:10;13.30;99.90
14741;DHT22;7462;53.530;9.414;2023-05-27T06:06:42;13.50;99.90
14741;DHT22;7462;53.530;9.414;2023-05-27T06:09:26;13.60;99.90
14741;DHT22;7462;53.530;9.414;2023-05-27T06:11:58;13.70;99.90
14741;DHT22;7462;53.530;9.414;2023-05-27T06:14:28;13.90;99.90
14741;DHT22;7462;53.530;9.414;2023-05-27T06:16:59;14.20;99.90
14741;DHT22;7462;53.530;9.414;2023-05-27T06:19:27;14.50;99.90
14741;DHT22;7462;53.530;9.414;2023-05-27T06:21:56;14.60;99.90
14741;DHT22;7462;53.530;9.414;2023-05-27T06:24:46;14.80;99.90
14741;DHT22;7462;53.530;9.414;2023-05-27T06:27:20;14.80;99.90
14741;DHT22;7462;53.530;9.414;2023-05-27T06:29:48;14.80;99.90
14741;DHT22;7462;53.530;9.414;2023-05-27T06:32:26;15.00;99.90
14741;DHT22;7462;53.530;9.414;2023-05-27T06:34:54;15.20;99.90
14741;DHT22;7462;53.530;9.414;2023-05-27T06:37:23;15.40;99.90
14741;DHT22;7462;53.530;9.414;2023-05-27T06:39:51;15.60;99.90
14741;DHT22;7462;53.530;9.414;2023-05-27T06:42:19;15.60;99.90
14741;DHT22;7462;53.530;9.414;2023-05-27T06:45:00;15.70;99.90
14741;DHT22;7462;53.530;9.414;2023-05-27T06:47:31;16.10;99.90
14741;DHT22;7462;53.530;9.414;2023-05-27T06:49:59;16.20;99.90
14741;DHT22;7462;53.530;9.414;2023-05-27T06:52:27;16.60;99.90
14741;DHT22;7462;53.530;9.414;2023-05-27T06:55:21;16.80;99.90
14741;DHT22;7462;53.530;9.414;2023-05-27T06:58:12;16.80;99.90
14741;DHT22;7462;53.530;9.414;2023-05-27T07:01:01;17.00;99.90
14741;DHT22;7462;53.530;9.414;2023-05-27T07:03:41;17.00;99.90
14741;DHT22;7462;53.530;9.414;2023-05-27T07:06:13;17.20;99.90
14741;DHT22;7462;53.530;9.414;2023-05-27T07:08:47;17.30;99.90
14741;DHT22;7462;53.530;9.414;2023-05-27T07:11:21;17.20;99.90
14741;DHT22;7462;53.530;9.414;2023-05-27T07:13:51;17.50;99.90
14741;DHT22;7462;53.530;9.414;2023-05-27T07:16:23;17.80;99.90
14741;DHT22;7462;53.530;9.414;2023-05-27T07:18:53;17.90;99.90
14741;DHT22;7462;53.530;9.414;2023-05-27T07:21:23;18.20;99.90
14741;DHT22;7462;53.530;9.414;2023-05-27T07:23:52;18.30;99.90
14741;DHT22;7462;53.530;9.414;2023-05-27T07:26:31;18.10;99.90
14741;DHT22;7462;53.530;9.414;2023-05-27T07:29:00;18.00;99.90
14741;DHT22;7462;53.530;9.414;2023-05-27T07:31:48;18.50;99.90
14741;DHT22;7462;53.530;9.414;2023-05-27T07:34:20;18.60;99.90
14741;DHT22;7462;53.530;9.414;2023-05-27T07:36:48;18.90;99.90
14741;DHT22;7462;53.530;9.414;2023-05-27T07:39:16;19.40;99.90
14741;DHT22;7462;53.530;9.414;2023-05-27T07:41:45;20.00;99.90
14741;DHT22;7462;53.530;9.414;2023-05-27T07:44:13;20.20;99.90
14741;DHT22;7462;53.530;9.414;2023-05-27T07:46:41;20.30;99.90
14741;DHT22;7462;53.530;9.414;2023-05-27T07:49:09;20.40;99.90
14741;DHT22;7462;53.530;9.414;2023-05-27T07:51:48;20.60;99.90
14741;DHT22;7462;53.530;9.414;2023-05-27T07:54:16;20.80;99.90
14741;DHT22;7462;53.530;9.414;2023-05-27T07:56:44;20.90;99.90
14741;DHT22;7462;53.530;9.414;2023-05-27T07:59:12;21.00;99.90
14741;DHT22;7462;53.530;9.414;2023-05-27T08:01:41;21.00;99.90
14741;DHT22;7462;53.530;9.414;2023-05-27T08:04:09;21.40;99.90
14741;DHT22;7462;53.530;9.414;2023-05-27T08:07:23;21.50;99.90
14741;DHT22;7462;53.530;9.414;2023-05-27T08:10:11;21.80;99.90
14741;DHT22;7462;53.530;9.414;2023-05-27T08:12:56;21.90;99.90
14741;DHT22;7462;53.530;9.414;2023-05-27T08:15:54;22.00;99.90
14741;DHT22;7462;53.530;9.414;2023-05-27T08:18:32;22.40;99.90
14741;DHT22;7462;53.530;9.414;2023-05-27T08:21:13;22.40;99.90
14741;DHT22;7462;53.530;9.414;2023-05-27T08:23:59;22.40;99.90
14741;DHT22;7462;53.530;9.414;2023-05-27T08:26:47;22.40;99.90
14741;DHT22;7462;53.530;9.414;2023-05-27T08:29:35;22.60;99.90
14741;DHT22;7462;53.530;9.414;2023-05-27T08:32:22;22.70;99.90
14741;DHT22;7462;53.530;9.414;2023-05-27T08:34:50;22.80;99.90
14741;DHT22;7462;53.530;9.414;2023-05-27T08:37:18;23.20;99.90
14741;DHT22;7462;53.530;9.414;2023-05-27T08:39:48;23.80;99.90
14741;DHT22;7462;53.530;9.414;2023-05-27T08:42:26;23.40;99.90
14741;DHT22;7462;53.530;9.414;2023-05-27T08:44:54;23.30;99.90
14741;DHT22;7462;53.530;9.414;2023-05-27T08:47:22;23.70;99.90
14741;DHT22;7462;53.530;9.414;2023-05-27T08:49:51;23.80;99.90
14741;DHT22;7462;53.530;9.414;2023-05-27T08:52:19;23.80;99.90
14741;DHT22;7462;53.530;9.414;2023-05-27T08:54:49;24.30;99.90
14741;DHT22;7462;53.530;9.414;2023-05-27T08:57:20;24.50;99.90
14741;DHT22;7462;53.530;9.414;2023-05-27T08:59:51;24.50;99.90
14741;DHT22;7462;53.530;9.414;2023-05-27T09:02:20;24.60;99.90
14741;DHT22;7462;53.530;9.414;2023-05-27T09:04:50;24.60;99.90
14741;DHT22;7462;53.530;9.414;2023-05-27T09:07:19;24.20;99.90
14741;DHT22;7462;53.530;9.414;2023-05-27T09:09:56;24.50;99.90
14741;DHT22;7462;53.530;9.414;2023-05-27T09:12:26;24.60;99.90
14741;DHT22;7462;53.530;9.414;2023-05-27T09:14:54;24.40;99.90
14741;DHT22;7462;53.530;9.414;2023-05-27T09:17:23;23.80;99.90
14741;DHT22;7462;53.530;9.414;2023-05-27T09:19:52;23.40;99.90
14741;DHT22;7462;53.530;9.414;2023-05-27T09:22:21;22.90;99.90
14741;DHT22;7462;53.530;9.414;2023-05-27T09:24:52;22.50;99.90
14741;DHT22;7462;53.530;9.414;2023-05-27T09:27:25;22.10;99.90
14741;DHT22;7462;53.530;9.414;2023-05-27T09:29:54;21.80;99.90
14741;DHT22;7462;53.530;9.414;2023-05-27T09:32:26;21.70;99.90
14741;DHT22;7462;53.530;9.414;2023-05-27T09:34:55;21.50;99.90
14741;DHT22;7462;53.530;9.414;2023-05-27T09:37:25;21.40;99.90
14741;DHT22;7462;53.530;9.414;2023-05-27T09:39:58;22.10;99.90
14741;DHT22;7462;53.530;9.414;2023-05-27T09:42:38;23.00;99.90
14741;DHT22;7462;53.530;9.414;2023-05-27T09:45:07;23.60;99.90
14741;DHT22;7462;53.530;9.414;2023-05-27T09:47:40;24.40;99.90
14741;DHT22;7462;53.530;9.414;2023-05-27T09:50:09;24.90;99.90
14741;DHT22;7462;53.530;9.414;2023-05-27T09:52:41;24.90;99.90
14741;DHT22;7462;53.530;9.414;2023-05-27T09:55:19;25.10;99.90
14741;DHT22;7462;53.530;9.414;2023-05-27T09:57:49;24.90;99.90
14741;DHT22;7462;53.530;9.414;2023-05-27T10:00:18;25.10;99.90
14741;DHT22;7462;53.530;9.414;2023-05-27T10:02:48;25.30;99.90
14741;DHT22;7462;53.530;9.414;2023-05-27T10:05:17;25.60;99.90
14741;DHT22;7462;53.530;9.414;2023-05-27T10:07:47;25.70;99.90
14741;DHT22;7462;53.530;9.414;2023-05-27T10:10:18;25.90;99.90
14741;DHT22;7462;53.530;9.414;2023-05-27T10:12:50;25.90;99.90
14741;DHT22;7462;53.530;9.414;2023-05-27T10:15:21;26.50;99.90
14741;DHT22;7462;53.530;9.414;2023-05-27T10:17:53;26.80;99.90
14741;DHT22;7462;53.530;9.414;2023-05-27T10:20:30;26.70;99.90
14741;DHT22;7462;53.530;9.414;2023-05-27T10:23:09;26.30;99.90
14741;DHT22;7462;53.530;9.414;2023-05-27T10:25:39;26.00;99.90
14741;DHT22;7462;53.530;9.414;2023-05-27T10:28:09;26.10;99.90
14741;DHT22;7462;53.530;9.414;2023-05-27T10:30:44;25.90;99.90
14741;DHT22;7462;53.530;9.414;2023-05-27T10:33:13;26.10;99.90
14741;DHT22;7462;53.530;9.414;2023-05-27T10:35:42;26.00;99.90
14741;DHT22;7462;53.530;9.414;2023-05-27T10:38:17;26.10;99.90
14741;DHT22;7462;53.530;9.414;2023-05-27T10:40:46;26.30;99.90
14741;DHT22;7462;53.530;9.414;2023-05-27T10:43:17;26.50;99.90
14741;DHT22;7462;53.530;9.414;2023-05-27T10:45:46;25.90;99.90
14741;DHT22;7462;53.530;9.414;2023-05-27T10:48:21;25.80;99.90
14741;DHT22;7462;53.530;9.414;2023-05-27T10:50:57;26.40;98.60
14741;DHT22;7462;53.530;9.414;2023-05-27T10:53:26;27.10;99.90
14741;DHT22;7462;53.530;9.414;2023-05-27T10:55:57;27.90;99.30
14741;DHT22;7462;53.530;9.414;2023-05-27T10:58:28;28.30;98.50
14741;DHT22;7462;53.530;9.414;2023-05-27T11:00:56;28.60;98.70
14741;DHT22;7462;53.530;9.414;2023-05-27T11:03:27;28.90;98.50
14741;DHT22;7462;53.530;9.414;2023-05-27T11:06:00;28.30;96.90
14741;DHT22;7462;53.530;9.414;2023-05-27T11:08:28;28.20;98.30
14741;DHT22;7462;53.530;9.414;2023-05-27T11:11:01;28.40;93.90
14741;DHT22;7462;53.530;9.414;2023-05-27T11:13:34;28.20;96.90
14741;DHT22;7462;53.530;9.414;2023-05-27T11:16:04;27.90;96.60
14741;DHT22;7462;53.530;9.414;2023-05-27T11:18:36;27.70;96.10
14741;DHT22;7462;53.530;9.414;2023-05-27T11:21:04;27.40;95.30
14741;DHT22;7462;53.530;9.414;2023-05-27T11:23:37;27.30;95.70
14741;DHT22;7462;53.530;9.414;2023-05-27T11:26:13;27.30;95.60
14741;DHT22;7462;53.530;9.414;2023-05-27T11:28:47;27.30;96.70
14741;DHT22;7462;53.530;9.414;2023-05-27T11:31:15;27.70;96.70
14741;DHT22;7462;53.530;9.414;2023-05-27T11:33:45;27.70;94.90
14741;DHT22;7462;53.530;9.414;2023-05-27T11:36:14;27.90;97.20
14741;DHT22;7462;53.530;9.414;2023-05-27T11:38:51;28.20;96.80
14741;DHT22;7462;53.530;9.414;2023-05-27T11:41:20;28.50;96.00
14741;DHT22;7462;53.530;9.414;2023-05-27T11:43:55;28.00;94.80
14741;DHT22;7462;53.530;9.414;2023-05-27T11:46:24;27.30;94.50
14741;DHT22;7462;53.530;9.414;2023-05-27T11:49:00;26.40;97.30
14741;DHT22;7462;53.530;9.414;2023-05-27T11:51:29;26.30;96.70
14741;DHT22;7462;53.530;9.414;2023-05-27T11:53:58;24.80;96.10
14741;DHT22;7462;53.530;9.414;2023-05-27T11:56:28;25.10;99.80
14741;DHT22;7462;53.530;9.414;2023-05-27T11:58:58;25.50;99.00
14741;DHT22;7462;53.530;9.414;2023-05-27T12:01:27;26.20;99.90
14741;DHT22;7462;53.530;9.414;2023-05-27T12:03:55;26.40;97.30
14741;DHT22;7462;53.530;9.414;2023-05-27T12:06:24;26.10;98.10
14741;DHT22;7462;53.530;9.414;2023-05-27T12:08:52;26.30;99.20
14741;DHT22;7462;53.530;9.414;2023-05-27T12:11:20;26.30;98.50
14741;DHT22;7462;53.530;9.414;2023-05-27T12:13:49;26.20;99.90
14741;DHT22;7462;53.530;9.414;2023-05-27T12:16:19;26.30;98.40
14741;DHT22;7462;53.530;9.414;2023-05-27T12:18:47;26.10;98.30
14741;DHT22;7462;53.530;9.414;2023-05-27T12:21:15;25.60;98.30
14741;DHT22;7462;53.530;9.414;2023-05-27T12:23:44;25.70;99.60
14741;DHT22;7462;53.530;9.414;2023-05-27T12:26:13;25.60;99.90
14741;DHT22;7462;53.530;9.414;2023-05-27T12:28:42;25.30;99.90
14741;DHT22;7462;53.530;9.414;2023-05-27T12:31:10;25.10;99.90
14741;DHT22;7462;53.530;9.414;2023-05-27T12:33:40;25.10;99.90
14741;DHT22;7462;53.530;9.414;2023-05-27T12:36:08;25.10;99.90
14741;DHT22;7462;53.530;9.414;2023-05-27T12:38:37;25.20;99.90
14741;DHT22;7462;53.530;9.414;2023-05-27T12:41:05;25.30;99.90
14741;DHT22;7462;53.530;9.414;2023-05-27T12:43:33;24.90;99.90
14741;DHT22;7462;53.530;9.414;2023-05-27T12:46:01;24.80;99.90
14741;DHT22;7462;53.530;9.414;2023-05-27T12:48:29;24.90;99.90
14741;DHT22;7462;53.530;9.414;2023-05-27T12:50:59;24.70;99.90
14741;DHT22;7462;53.530;9.414;2023-05-27T12:53:27;24.60;99.90
14741;DHT22;7462;53.530;9.414;2023-05-27T12:55:55;24.80;99.90
14741;DHT22;7462;53.530;9.414;2023-05-27T12:58:24;24.70;99.90
14741;DHT22;7462;53.530;9.414;2023-05-27T13:00:52;24.60;99.90
14741;DHT22;7462;53.530;9.414;2023-05-27T13:03:21;24.70;99.90
14741;DHT22;7462;53.530;9.414;2023-05-27T13:05:49;24.40;99.90
14741;DHT22;7462;53.530;9.414;2023-05-27T13:08:18;24.30;99.90
14741;DHT22;7462;53.530;9.414;2023-05-27T13:10:46;24.30;99.90
14741;DHT22;7462;53.530;9.414;2023-05-27T13:13:15;24.00;99.90
14741;DHT22;7462;53.530;9.414;2023-05-27T13:15:43;23.90;99.90
14741;DHT22;7462;53.530;9.414;2023-05-27T13:18:12;23.80;99.90
14741;DHT22;7462;53.530;9.414;2023-05-27T13:20:40;23.90;99.90
14741;DHT22;7462;53.530;9.414;2023-05-27T13:23:08;23.90;99.90
14741;DHT22;7462;53.530;9.414;2023-05-27T13:25:38;23.50;99.90
14741;DHT22;7462;53.530;9.414;2023-05-27T13:28:06;23.50;99.90
14741;DHT22;7462;53.530;9.414;2023-05-27T13:30:34;23.20;99.90
14741;DHT22;7462;53.530;9.414;2023-05-27T13:33:02;23.30;99.90
14741;DHT22;7462;53.530;9.414;2023-05-27T13:35:30;23.30;99.90
14741;DHT22;7462;53.530;9.414;2023-05-27T13:37:58;23.10;99.90
14741;DHT22;7462;53.530;9.414;2023-05-27T13:40:27;23.10;99.90
14741;DHT22;7462;53.530;9.414;2023-05-27T13:42:57;23.00;99.90
14741;DHT22;7462;53.530;9.414;2023-05-27T13:45:25;23.00;99.90
14741;DHT22;7462;53.530;9.414;2023-05-27T13:47:54;22.70;99.90
14741;DHT22;7462;53.530;9.414;2023-05-27T13:50:22;22.70;99.90
14741;DHT22;7462;53.530;9.414;2023-05-27T13:52:50;22.80;99.90
14741;DHT22;7462;53.530;9.414;2023-05-27T13:55:18;22.60;99.90
14741;DHT22;7462;53.530;9.414;2023-05-27T13:57:46;22.30;99.90
14741;DHT22;7462;53.530;9.414;2023-05-27T14:00:16;22.10;99.90
14741;DHT22;7462;53.530;9.414;2023-05-27T14:02:44;22.30;99.90
14741;DHT22;7462;53.530;9.414;2023-05-27T14:05:12;22.30;99.90
14741;DHT22;7462;53.530;9.414;2023-05-27T14:07:41;22.20;99.90
14741;DHT22;7462;53.530;9.414;2023-05-27T14:10:10;22.10;99.90
14741;DHT22;7462;53.530;9.414;2023-05-27T14:12:39;22.10;99.90
14741;DHT22;7462;53.530;9.414;2023-05-27T14:15:08;21.90;99.90
14741;DHT22;7462;53.530;9.414;2023-05-27T14:17:38;21.80;99.90
14741;DHT22;7462;53.530;9.414;2023-05-27T14:20:07;21.60;99.90
14741;DHT22;7462;53.530;9.414;2023-05-27T14:22:38;21.70;99.90
14741;DHT22;7462;53.530;9.414;2023-05-27T14:25:06;21.70;99.90
14741;DHT22;7462;53.530;9.414;2023-05-27T14:27:35;21.50;99.90
14741;DHT22;7462;53.530;9.414;2023-05-27T14:30:03;21.50;99.90
14741;DHT22;7462;53.530;9.414;2023-05-27T14:32:32;21.30;99.90
14741;DHT22;7462;53.530;9.414;2023-05-27T14:35:04;21.20;99.90
14741;DHT22;7462;53.530;9.414;2023-05-27T14:37:33;21.10;99.90
14741;DHT22;7462;53.530;9.414;2023-05-27T14:40:01;21.30;99.90
14741;DHT22;7462;53.530;9.414;2023-05-27T14:42:29;21.60;99.90
14741;DHT22;7462;53.530;9.414;2023-05-27T14:44:58;21.60;99.90
14741;DHT22;7462;53.530;9.414;2023-05-27T14:47:26;21.60;99.90
14741;DHT22;7462;53.530;9.414;2023-05-27T14:49:54;21.40;99.90
14741;DHT22;7462;53.530;9.414;2023-05-27T14:52:24;21.40;99.90
14741;DHT22;7462;53.530;9.414;2023-05-27T14:54:52;21.10;99.90
14741;DHT22;7462;53.530;9.414;2023-05-27T14:57:21;21.10;99.90
14741;DHT22;7462;53.530;9.414;2023-05-27T14:59:49;21.00;99.90
14741;DHT22;7462;53.530;9.414;2023-05-27T15:02:17;21.00;99.90
14741;DHT22;7462;53.530;9.414;2023-05-27T15:04:45;21.00;99.90
14741;DHT22;7462;53.530;9.414;2023-05-27T15:07:13;21.10;99.90
14741;DHT22;7462;53.530;9.414;2023-05-27T15:09:46;21.20;99.90
14741;DHT22;7462;53.530;9.414;2023-05-27T15:12:15;21.20;99.90
14741;DHT22;7462;53.530;9.414;2023-05-27T15:14:43;21.20;99.90
14741;DHT22;7462;53.530;9.414;2023-05-27T15:17:11;21.10;99.90
14741;DHT22;7462;53.530;9.414;2023-05-27T15:19:40;21.10;99.90
14741;DHT22;7462;53.530;9.414;2023-05-27T15:22:08;21.00;99.90
14741;DHT22;7462;53.530;9.414;2023-05-27T15:24:36;21.00;99.90
14741;DHT22;7462;53.530;9.414;2023-05-27T15:27:06;20.80;99.90
14741;DHT22;7462;53.530;9.414;2023-05-27T15:29:34;20.50;99.90
14741;DHT22;7462;53.530;9.414;2023-05-27T15:32:02;20.40;99.90
14741;DHT22;7462;53.530;9.414;2023-05-27T15:34:30;20.60;99.90
14741;DHT22;7462;53.530;9.414;2023-05-27T15:36:58;20.70;99.90
14741;DHT22;7462;53.530;9.414;2023-05-27T15:39:27;20.70;99.90
14741;DHT22;7462;53.530;9.414;2023-05-27T15:41:55;20.70;99.90
14741;DHT22;7462;53.530;9.414;2023-05-27T15:44:25;20.80;99.90
14741;DHT22;7462;53.530;9.414;2023-05-27T15:46:53;20.70;99.90
14741;DHT22;7462;53.530;9.414;2023-05-27T15:49:21;20.70;99.90
14741;DHT22;7462;53.530;9.414;2023-05-27T15:51:50;20.80;99.90
14741;DHT22;7462;53.530;9.414;2023-05-27T15:54:18;20.80;99.90
14741;DHT22;7462;53.530;9.414;2023-05-27T15:56:46;20.80;99.90
14741;DHT22;7462;53.530;9.414;2023-05-27T15:59:14;20.70;99.90
14741;DHT22;7462;53.530;9.414;2023-05-27T16:01:44;20.70;99.90
14741;DHT22;7462;53.530;9.414;2023-05-27T16:04:12;20.80;99.90
14741;DHT22;7462;53.530;9.414;2023-05-27T16:06:40;20.70;99.90
14741;DHT22;7462;53.530;9.414;2023-05-27T16:09:08;20.60;99.90
14741;DHT22;7462;53.530;9.414;2023-05-27T16:11:37;20.60;99.90